Time;durP1;ratioP1;P1;durP2;ratioP2;P2;SDS_P1;SDS_P2;PMS_P1;PMS_P2;Temp;Humidity;BMP_temperature;BMP_pressure;BME280_temperature;BME280_humidity;BME280_pressure;Samples;Min_cycle;Max_cycle;Signal;HPM_P1;HPM_P2
2021/04/04 00:00:18;;;;;;;25.08;7.53;;;4.60;99.90;;;;;;4970990;28;20031;-56
2021/04/04 00:02:44;;;;;;;28.65;5.28;;;4.60;99.90;;;;;;4956252;28;20023;-56
2021/04/04 00:05:11;;;;;;;32.47;5.57;;;4.50;99.90;;;;;;4972662;28;20404;-54
2021/04/04 00:07:36;;;;;;;17.95;5.22;;;4.50;99.90;;;;;;4969458;28;20097;-55
2021/04/04 00:10:05;;;;;;;34.35;6.38;;;4.40;99.90;;;;;;4976837;28;20466;-56
2021/04/04 00:12:31;;;;;;;23.98;5.43;;;4.40;99.90;;;;;;4960800;28;20110;-54
2021/04/04 00:14:56;;;;;;;24.85;5.82;;;4.40;99.90;;;;;;4961639;28;20114;-53
2021/04/04 00:17:22;;;;;;;26.10;6.07;;;4.40;99.90;;;;;;4967019;28;20492;-56
2021/04/04 00:19:48;;;;;;;26.70;5.97;;;4.30;99.90;;;;;;4970505;28;20023;-54
2021/04/04 00:22:13;;;;;;;33.35;6.68;;;4.30;99.90;;;;;;4961244;28;20391;-53
2021/04/04 00:24:39;;;;;;;33.70;7.28;;;4.20;99.90;;;;;;4966703;28;20046;-54
2021/04/04 00:27:04;;;;;;;25.42;6.20;;;4.10;99.90;;;;;;4970014;28;20039;-55
2021/04/04 00:29:30;;;;;;;28.88;6.50;;;4.10;99.90;;;;;;4968925;28;20047;-53
2021/04/04 00:31:55;;;;;;;29.40;5.43;;;4.00;99.90;;;;;;4968955;28;20034;-56
2021/04/04 00:34:22;;;;;;;31.70;5.70;;;3.90;99.90;;;;;;4970206;28;20062;-56
2021/04/04 00:36:48;;;;;;;32.95;6.30;;;3.90;99.90;;;;;;4970550;28;20023;-54
2021/04/04 00:39:13;;;;;;;31.92;6.38;;;3.80;99.90;;;;;;4972892;28;20031;-55
2021/04/04 00:41:40;;;;;;;39.78;6.03;;;3.80;99.90;;;;;;4970108;28;20031;-57
2021/04/04 00:44:06;;;;;;;30.70;6.68;;;3.80;99.90;;;;;;4960326;28;20047;-55
2021/04/04 00:46:32;;;;;;;30.95;5.57;;;3.70;99.90;;;;;;4968864;28;20031;-56
2021/04/04 00:48:58;;;;;;;30.40;5.50;;;3.70;99.90;;;;;;4970093;28;20081;-58
2021/04/04 00:51:24;;;;;;;23.20;5.40;;;3.70;99.90;;;;;;4967666;28;20023;-57
2021/04/04 00:53:50;;;;;;;43.47;6.95;;;3.60;99.90;;;;;;4964805;28;20429;-56
2021/04/04 00:56:16;;;;;;;16.05;4.85;;;3.60;99.90;;;;;;4960321;28;20165;-56
2021/04/04 00:58:43;;;;;;;25.00;5.78;;;3.60;99.90;;;;;;4963792;28;20073;-57
2021/04/04 01:01:10;;;;;;;31.98;5.10;;;3.50;99.90;;;;;;4966246;28;20113;-55
2021/04/04 01:03:35;;;;;;;23.15;5.93;;;3.50;99.90;;;;;;4964494;28;20392;-53
2021/04/04 01:06:04;;;;;;;38.47;5.97;;;3.50;99.90;;;;;;4972060;28;20039;-55
2021/04/04 01:08:31;;;;;;;24.73;5.93;;;3.50;99.90;;;;;;4968045;28;20033;-52
2021/04/04 01:10:57;;;;;;;25.08;5.30;;;3.50;99.90;;;;;;4972471;28;20041;-58
2021/04/04 01:13:41;;;;;;;16.27;5.22;;;3.40;99.90;;;;;;4962002;28;20391;-55
2021/04/04 01:16:16;;;;;;;38.83;7.28;;;3.40;99.90;;;;;;4966411;28;20031;-56
2021/04/04 01:18:42;;;;;;;25.38;6.43;;;3.40;99.90;;;;;;4966138;28;20050;-56
2021/04/04 01:21:23;;;;;;;22.55;6.05;;;3.40;99.90;;;;;;4966506;28;20492;-57
2021/04/04 01:24:10;;;;;;;31.27;6.65;;;3.40;99.90;;;;;;4967162;28;20031;-53
2021/04/04 01:26:46;;;;;;;28.30;5.20;;;3.40;99.90;;;;;;4965239;28;20095;-57
2021/04/04 01:29:13;;;;;;;27.65;6.60;;;3.40;99.90;;;;;;4966990;28;20114;-53
2021/04/04 01:31:41;;;;;;;19.95;5.47;;;3.40;99.90;;;;;;4966402;28;20031;-53
2021/04/04 01:34:07;;;;;;;29.50;6.60;;;3.40;99.90;;;;;;4966328;28;20132;-55
2021/04/04 01:36:36;;;;;;;18.13;5.18;;;3.50;99.90;;;;;;4966580;28;20027;-56
2021/04/04 01:39:07;;;;;;;25.00;5.35;;;3.50;99.90;;;;;;4966256;28;20030;-55
2021/04/04 01:41:35;;;;;;;29.05;5.85;;;3.60;99.90;;;;;;4961438;28;20035;-58
2021/04/04 01:44:12;;;;;;;27.25;5.47;;;3.70;99.90;;;;;;4970154;28;20038;-57
2021/04/04 01:46:40;;;;;;;20.80;5.20;;;3.80;99.90;;;;;;4965949;28;20071;-56
2021/04/04 01:49:06;;;;;;;27.05;6.05;;;3.80;99.90;;;;;;4971870;28;20086;-57
2021/04/04 01:51:33;;;;;;;22.23;4.68;;;3.90;99.90;;;;;;4968561;28;20094;-56
2021/04/04 01:54:02;;;;;;;25.35;4.97;;;3.90;99.90;;;;;;4967972;28;20034;-56
2021/04/04 01:56:28;;;;;;;37.05;5.65;;;4.00;99.90;;;;;;4967956;28;20034;-53
2021/04/04 01:58:54;;;;;;;30.48;5.60;;;4.10;99.90;;;;;;4969939;28;20035;-55
2021/04/04 02:01:20;;;;;;;30.83;8.38;;;4.10;99.90;;;;;;4968607;28;20076;-56
2021/04/04 02:03:47;;;;;;;27.13;5.28;;;4.20;99.90;;;;;;4969379;28;20057;-55
2021/04/04 02:06:14;;;;;;;30.50;5.10;;;4.20;99.90;;;;;;4969593;28;20082;-54
2021/04/04 02:08:41;;;;;;;28.52;5.75;;;4.30;99.90;;;;;;4967031;28;20030;-55
2021/04/04 02:11:10;;;;;;;24.20;4.97;;;4.30;99.90;;;;;;4948926;28;20504;-54
2021/04/04 02:13:37;;;;;;;22.35;6.03;;;4.30;99.90;;;;;;4967160;28;20046;-56
2021/04/04 02:16:06;;;;;;;21.40;5.18;;;4.40;99.90;;;;;;4969384;28;20030;-56
2021/04/04 02:18:33;;;;;;;32.83;6.03;;;4.40;99.90;;;;;;4968949;28;20023;-55
2021/04/04 02:20:59;;;;;;;27.10;5.40;;;4.40;99.90;;;;;;4969238;28;20058;-54
2021/04/04 02:23:26;;;;;;;28.95;5.70;;;4.30;99.90;;;;;;4968629;28;20083;-55
2021/04/04 02:25:54;;;;;;;29.45;5.38;;;4.30;99.90;;;;;;4967608;28;20030;-53
2021/04/04 02:28:21;;;;;;;25.85;5.55;;;4.30;99.90;;;;;;4968679;28;20433;-54
2021/04/04 02:30:47;;;;;;;28.30;6.22;;;4.30;99.90;;;;;;4957803;28;20534;-58
2021/04/04 02:33:30;;;;;;;24.45;5.70;;;4.30;99.90;;;;;;4965843;28;20035;-55
2021/04/04 02:35:59;;;;;;;32.13;5.00;;;4.30;99.90;;;;;;4967792;28;20023;-58
2021/04/04 02:38:34;;;;;;;30.45;6.05;;;4.30;99.90;;;;;;4967871;28;20026;-53
2021/04/04 02:41:03;;;;;;;19.35;5.40;;;4.30;99.90;;;;;;4961484;28;20035;-56
2021/04/04 02:43:30;;;;;;;27.42;5.05;;;4.30;99.90;;;;;;4967834;28;20018;-54
2021/04/04 02:45:58;;;;;;;27.92;5.65;;;4.30;99.90;;;;;;4969767;28;20096;-53
2021/04/04 02:48:38;;;;;;;32.05;6.07;;;4.40;99.90;;;;;;4961480;28;20027;-53
2021/04/04 02:51:07;;;;;;;26.15;7.35;;;4.40;99.90;;;;;;4968127;28;20428;-53
2021/04/04 02:53:39;;;;;;;21.98;5.53;;;4.40;99.90;;;;;;4948278;28;20112;-53
2021/04/04 02:56:07;;;;;;;22.33;4.47;;;4.40;99.90;;;;;;4956309;28;20589;-54
2021/04/04 02:58:34;;;;;;;35.85;8.75;;;4.40;99.90;;;;;;4956201;28;20027;-57
2021/04/04 03:01:01;;;;;;;24.67;5.72;;;4.40;99.90;;;;;;4968060;28;20042;-52
2021/04/04 03:03:29;;;;;;;25.48;5.00;;;4.50;99.90;;;;;;4964731;28;20034;-58
2021/04/04 03:06:03;;;;;;;29.15;5.32;;;4.50;99.90;;;;;;4949101;28;20057;-52
2021/04/04 03:08:28;;;;;;;17.95;4.97;;;4.50;99.90;;;;;;4967663;28;20539;-55
2021/04/04 03:10:55;;;;;;;40.55;5.72;;;4.50;99.90;;;;;;4963365;28;20077;-52
2021/04/04 03:13:22;;;;;;;29.23;5.57;;;4.60;99.90;;;;;;4947449;28;20078;-54
2021/04/04 03:15:50;;;;;;;22.63;5.30;;;4.50;99.90;;;;;;4958036;28;20035;-52
2021/04/04 03:18:17;;;;;;;32.90;5.93;;;4.50;99.90;;;;;;4965624;28;20113;-54
2021/04/04 03:20:45;;;;;;;27.00;6.50;;;4.50;99.90;;;;;;4957854;28;20038;-58
2021/04/04 03:23:14;;;;;;;24.58;5.25;;;4.60;99.90;;;;;;4967508;28;20034;-55
2021/04/04 03:25:41;;;;;;;22.75;5.68;;;4.60;99.90;;;;;;4968393;28;20082;-56
2021/04/04 03:28:07;;;;;;;32.80;7.43;;;4.50;99.90;;;;;;4967169;28;20046;-53
2021/04/04 03:30:36;;;;;;;33.53;8.23;;;4.50;99.90;;;;;;4967641;28;20063;-53
2021/04/04 03:33:06;;;;;;;30.00;5.78;;;4.50;99.90;;;;;;4955796;28;20529;-56
2021/04/04 03:35:33;;;;;;;25.55;6.00;;;4.50;99.90;;;;;;4967410;28;20070;-56
2021/04/04 03:38:01;;;;;;;28.85;6.25;;;4.40;99.90;;;;;;4956620;28;20038;-54
2021/04/04 03:40:27;;;;;;;28.40;6.35;;;4.40;99.90;;;;;;4967055;28;20126;-57
2021/04/04 03:42:54;;;;;;;26.83;5.68;;;4.40;99.90;;;;;;4967181;28;20114;-54
2021/04/04 03:45:22;;;;;;;32.25;5.13;;;4.50;99.90;;;;;;4967731;28;20655;-57
2021/04/04 03:47:49;;;;;;;37.13;7.53;;;4.40;99.90;;;;;;4966212;28;20121;-53
2021/04/04 03:50:20;;;;;;;30.95;5.32;;;4.40;99.90;;;;;;4968335;28;20037;-57
2021/04/04 03:52:47;;;;;;;30.25;5.80;;;4.40;99.90;;;;;;4940867;28;20039;-54
2021/04/04 03:55:17;;;;;;;23.80;6.13;;;4.50;99.90;;;;;;4921706;28;20150;-53
2021/04/04 03:57:44;;;;;;;31.08;6.22;;;4.50;99.90;;;;;;4966292;28;20137;-56
2021/04/04 04:00:11;;;;;;;35.22;7.38;;;4.40;99.90;;;;;;4967386;28;20182;-54
2021/04/04 04:02:38;;;;;;;27.67;6.15;;;4.40;99.90;;;;;;4967008;28;20118;-52
2021/04/04 04:05:05;;;;;;;28.95;7.00;;;4.30;99.90;;;;;;4965044;28;20121;-56
2021/04/04 04:07:32;;;;;;;36.50;6.43;;;4.30;99.90;;;;;;4966569;28;20041;-53
2021/04/04 04:10:00;;;;;;;22.15;5.63;;;4.30;99.90;;;;;;4967016;28;20051;-57
2021/04/04 04:12:27;;;;;;;22.35;5.13;;;4.30;99.90;;;;;;4970613;28;20038;-58
2021/04/04 04:14:56;;;;;;;23.52;6.03;;;4.40;99.90;;;;;;4974806;28;20033;-57
2021/04/04 04:17:23;;;;;;;22.33;5.93;;;4.30;99.90;;;;;;4970593;28;20030;-55
2021/04/04 04:19:49;;;;;;;31.45;7.10;;;4.30;99.90;;;;;;4969879;28;20023;-55
2021/04/04 04:22:15;;;;;;;39.35;6.43;;;4.30;99.90;;;;;;4966627;28;20118;-54
2021/04/04 04:24:41;;;;;;;27.38;5.38;;;4.30;99.90;;;;;;4964290;28;20134;-56
2021/04/04 04:27:09;;;;;;;28.45;7.32;;;4.30;99.90;;;;;;4966232;28;20038;-55
2021/04/04 04:29:36;;;;;;;35.65;7.43;;;4.30;99.90;;;;;;4967679;28;20038;-56
2021/04/04 04:32:04;;;;;;;24.08;5.93;;;4.30;99.90;;;;;;4964305;28;20060;-56
2021/04/04 04:34:31;;;;;;;15.38;5.13;;;4.30;99.90;;;;;;4968338;28;20062;-51
2021/04/04 04:36:58;;;;;;;26.20;6.30;;;4.40;99.90;;;;;;4964813;28;20106;-57
2021/04/04 04:39:24;;;;;;;33.25;6.82;;;4.40;99.90;;;;;;4966401;28;20114;-56
2021/04/04 04:41:51;;;;;;;28.98;5.65;;;4.40;99.90;;;;;;4966319;28;20023;-57
2021/04/04 04:44:27;;;;;;;19.17;5.18;;;4.30;99.90;;;;;;4966186;28;20542;-54
2021/04/04 04:46:53;;;;;;;25.23;6.15;;;4.30;99.90;;;;;;4966270;28;20035;-55
2021/04/04 04:49:19;;;;;;;28.83;7.70;;;4.30;99.90;;;;;;4965173;28;20034;-54
2021/04/04 04:51:48;;;;;;;23.00;6.15;;;4.30;99.90;;;;;;4964822;28;20062;-53
2021/04/04 04:54:15;;;;;;;28.67;6.95;;;4.40;99.90;;;;;;4966061;28;20436;-57
2021/04/04 04:56:41;;;;;;;30.02;7.15;;;4.30;99.90;;;;;;4951438;28;20058;-54
2021/04/04 04:59:08;;;;;;;28.30;7.22;;;4.30;99.90;;;;;;4967758;28;20052;-56
2021/04/04 05:01:41;;;;;;;22.13;6.00;;;4.40;99.90;;;;;;4966051;28;20069;-55
2021/04/04 05:04:07;;;;;;;25.10;6.00;;;4.30;99.90;;;;;;4964951;28;20061;-56
2021/04/04 05:06:33;;;;;;;23.17;6.47;;;4.40;99.90;;;;;;4965106;28;20401;-55
2021/04/04 05:09:00;;;;;;;37.47;7.10;;;4.40;99.90;;;;;;4965819;28;20034;-54
2021/04/04 05:11:26;;;;;;;39.50;8.50;;;4.40;99.90;;;;;;4966149;28;20030;-53
2021/04/04 05:13:53;;;;;;;29.23;7.57;;;4.40;99.90;;;;;;4969625;28;20062;-55
2021/04/04 05:16:18;;;;;;;32.92;7.25;;;4.40;99.90;;;;;;4965335;28;20129;-55
2021/04/04 05:18:49;;;;;;;23.05;6.70;;;4.40;99.90;;;;;;4966307;28;20067;-56
2021/04/04 05:21:29;;;;;;;25.42;6.57;;;4.50;99.90;;;;;;4966321;28;20552;-56
2021/04/04 05:24:05;;;;;;;26.42;6.15;;;4.50;99.90;;;;;;4969962;28;20037;-54
2021/04/04 05:26:41;;;;;;;25.25;7.93;;;4.50;99.90;;;;;;4974829;28;20039;-57
2021/04/04 05:29:09;;;;;;;27.95;5.70;;;4.50;99.90;;;;;;4970233;28;20073;-55
2021/04/04 05:31:46;;;;;;;24.20;7.72;;;4.50;99.90;;;;;;4968414;28;20098;-55
2021/04/04 05:34:16;;;;;;;21.58;5.65;;;4.50;99.90;;;;;;4969959;28;20066;-55
2021/04/04 05:36:56;;;;;;;18.23;5.65;;;4.60;99.90;;;;;;4968965;28;20039;-54
2021/04/04 05:39:24;;;;;;;30.20;6.13;;;4.60;99.90;;;;;;4971344;28;20281;-52
2021/04/04 05:41:55;;;;;;;28.48;4.95;;;4.60;99.90;;;;;;4969746;28;20405;-55
2021/04/04 05:44:40;;;;;;;22.83;5.22;;;4.60;99.90;;;;;;4969654;28;20035;-57
2021/04/04 05:47:27;;;;;;;35.53;6.28;;;4.50;99.90;;;;;;4965731;28;20609;-56
2021/04/04 05:50:04;;;;;;;27.35;6.80;;;4.50;99.90;;;;;;4969059;28;20034;-56
2021/04/04 05:52:37;;;;;;;23.77;5.70;;;4.50;99.90;;;;;;4966452;28;20416;-53
2021/04/04 05:55:36;;;;;;;25.98;5.55;;;4.50;99.90;;;;;;4957118;28;20035;-56
2021/04/04 05:58:16;;;;;;;24.63;5.68;;;4.60;99.90;;;;;;4971072;28;20030;-53
2021/04/04 06:00:45;;;;;;;24.02;6.05;;;4.60;99.90;;;;;;4957042;28;20034;-53
2021/04/04 06:03:47;;;;;;;32.20;5.85;;;4.60;99.90;;;;;;4968077;28;20608;-55
2021/04/04 06:06:38;;;;;;;24.92;5.75;;;4.70;99.90;;;;;;4964194;28;20093;-56
2021/04/04 06:09:25;;;;;;;25.33;6.28;;;4.70;99.90;;;;;;4972524;28;20030;-55
2021/04/04 06:12:18;;;;;;;22.90;7.32;;;4.70;99.90;;;;;;4972511;28;20026;-56
2021/04/04 06:15:16;;;;;;;24.08;5.65;;;4.70;99.90;;;;;;4972050;28;20058;-54
2021/04/04 06:18:08;;;;;;;25.85;7.05;;;4.80;99.90;;;;;;4969193;28;20136;-56
2021/04/04 06:20:55;;;;;;;32.53;7.10;;;4.80;99.90;;;;;;4969343;28;20030;-55
2021/04/04 06:23:31;;;;;;;24.73;8.15;;;4.80;99.90;;;;;;4958750;28;20166;-56
2021/04/04 06:25:59;;;;;;;39.65;9.05;;;4.90;99.90;;;;;;4971111;28;20514;-54
2021/04/04 06:28:25;;;;;;;38.40;11.27;;;5.00;99.90;;;;;;4972529;28;20026;-56
2021/04/04 06:31:12;;;;;;;39.78;11.38;;;5.00;99.90;;;;;;4972406;28;20634;-55
2021/04/04 06:33:44;;;;;;;29.38;10.95;;;5.00;99.90;;;;;;4972104;28;20062;-53
2021/04/04 06:36:21;;;;;;;31.48;12.60;;;5.00;99.90;;;;;;4973084;28;20038;-55
2021/04/04 06:38:46;;;;;;;36.17;11.27;;;5.10;99.90;;;;;;4972742;28;20027;-53
2021/04/04 06:41:21;;;;;;;36.20;14.25;;;5.10;99.90;;;;;;4972436;28;20031;-57
2021/04/04 06:44:25;;;;;;;38.63;16.65;;;5.20;99.90;;;;;;4970599;28;20030;-57
2021/04/04 06:47:03;;;;;;;41.58;16.88;;;5.10;99.90;;;;;;4967578;28;20050;-56
2021/04/04 06:49:49;;;;;;;42.28;18.23;;;5.20;99.90;;;;;;4972246;28;20031;-53
2021/04/04 06:52:30;;;;;;;37.72;16.85;;;5.20;99.90;;;;;;4961954;28;20035;-53
2021/04/04 06:55:06;;;;;;;41.25;16.55;;;5.40;99.90;;;;;;4960366;28;20511;-54
2021/04/04 06:58:09;;;;;;;42.10;16.25;;;5.50;99.90;;;;;;4955240;28;20149;-57
2021/04/04 07:01:04;;;;;;;41.65;15.18;;;5.50;99.90;;;;;;4967812;28;20030;-57
2021/04/04 07:03:50;;;;;;;39.38;13.32;;;5.40;99.90;;;;;;4970093;28;20513;-58
2021/04/04 07:06:31;;;;;;;31.20;14.65;;;5.60;99.90;;;;;;4969070;28;20053;-56
2021/04/04 07:09:05;;;;;;;51.47;17.77;;;5.60;99.90;;;;;;4964785;28;20031;-57
2021/04/04 07:11:41;;;;;;;48.90;16.08;;;5.70;99.90;;;;;;4967714;28;20449;-58
2021/04/04 07:14:22;;;;;;;33.97;13.50;;;5.80;99.90;;;;;;4965579;28;20093;-58
2021/04/04 07:17:06;;;;;;;39.95;14.65;;;5.90;99.90;;;;;;4967694;28;20026;-57
2021/04/04 07:19:51;;;;;;;;;;;6.10;99.90;;;;;;4973261;28;20050;-58
2021/04/04 07:22:53;;;;;;;33.58;14.23;;;5.90;99.90;;;;;;4966680;28;20395;-55
2021/04/04 07:25:37;;;;;;;45.85;14.93;;;6.10;99.90;;;;;;4970137;28;20115;-57
2021/04/04 07:28:41;;;;;;;38.03;17.80;;;6.20;99.90;;;;;;4967231;28;20029;-53
2021/04/04 07:31:10;;;;;;;35.00;16.87;;;6.30;99.90;;;;;;4968428;28;20046;-56
2021/04/04 07:33:58;;;;;;;39.22;16.20;;;6.30;99.70;;;;;;4960961;28;20275;-57
2021/04/04 07:36:44;;;;;;;32.55;15.27;;;6.40;99.60;;;;;;4965542;28;20349;-52
2021/04/04 07:39:33;;;;;;;38.53;16.15;;;6.10;99.60;;;;;;4969249;28;20025;-58
2021/04/04 07:42:20;;;;;;;30.58;15.63;;;6.30;99.20;;;;;;4970335;28;20030;-56
2021/04/04 07:44:57;;;;;;;35.55;14.40;;;6.40;99.20;;;;;;4970559;28;20042;-57
2021/04/04 07:47:38;;;;;;;28.05;13.50;;;6.40;99.40;;;;;;4965856;28;20077;-55
2021/04/04 07:50:07;;;;;;;30.90;13.57;;;6.40;99.10;;;;;;4970979;28;20097;-54
2021/04/04 07:52:37;;;;;;;41.97;16.63;;;6.40;99.40;;;;;;4969713;28;20440;-57
2021/04/04 07:55:14;;;;;;;37.80;15.35;;;6.40;99.30;;;;;;4971376;28;20022;-55
2021/04/04 07:57:59;;;;;;;40.75;14.27;;;6.40;99.80;;;;;;4955903;28;20053;-55
2021/04/04 08:00:27;;;;;;;34.55;13.18;;;6.40;99.50;;;;;;4970681;28;20634;-55
2021/04/04 08:03:16;;;;;;;35.53;14.00;;;6.30;99.70;;;;;;4953395;28;20113;-54
2021/04/04 08:05:45;;;;;;;38.53;15.77;;;6.30;99.70;;;;;;4960572;28;20106;-55
2021/04/04 08:08:17;;;;;;;39.17;16.65;;;6.30;99.90;;;;;;4964290;28;20034;-56
2021/04/04 08:11:21;;;;;;;41.03;15.77;;;6.30;99.90;;;;;;4969538;28;20476;-57
2021/04/04 08:14:00;;;;;;;42.15;18.42;;;6.20;99.90;;;;;;4959854;28;20057;-56
2021/04/04 08:16:53;;;;;;;44.45;18.85;;;6.30;99.90;;;;;;4969299;28;20067;-55
2021/04/04 08:19:19;;;;;;;46.47;21.90;;;6.40;99.90;;;;;;4964812;28;20034;-58
2021/04/04 08:22:05;;;;;;;56.83;23.15;;;6.40;99.90;;;;;;4969587;28;20034;-55
2021/04/04 08:25:00;;;;;;;58.22;24.00;;;6.40;99.90;;;;;;4970723;28;20114;-57
2021/04/04 08:27:44;;;;;;;54.55;25.05;;;6.50;99.90;;;;;;4964791;28;20019;-59
2021/04/04 08:30:29;;;;;;;58.42;27.33;;;6.40;99.90;;;;;;4957366;28;20028;-55
2021/04/04 08:33:57;;;;;;;63.33;29.08;;;6.50;99.90;;;;;;4965166;28;20027;-55
2021/04/04 08:36:27;;;;;;;66.45;29.10;;;6.40;99.90;;;;;;4836218;29;20029;-55
2021/04/04 08:38:56;;;;;;;64.13;30.55;;;6.60;99.90;;;;;;4946642;28;20412;-56
2021/04/04 08:41:23;;;;;;;57.33;27.98;;;6.50;99.90;;;;;;4971276;28;20378;-58
2021/04/04 08:43:57;;;;;;;71.70;31.10;;;6.50;99.70;;;;;;4969583;28;20062;-55
2021/04/04 08:46:40;;;;;;;64.80;29.88;;;6.40;99.90;;;;;;4962326;28;20029;-54
2021/04/04 08:49:06;;;;;;;58.95;29.60;;;6.40;99.90;;;;;;4970017;28;20031;-58
2021/04/04 08:51:38;;;;;;;63.15;28.80;;;6.40;99.90;;;;;;4969944;28;20032;-56
2021/04/04 08:54:14;;;;;;;66.82;31.75;;;6.20;99.90;;;;;;4969708;28;20034;-59
2021/04/04 08:56:46;;;;;;;68.50;30.23;;;6.30;99.90;;;;;;4957380;28;20042;-56
2021/04/04 08:59:15;;;;;;;69.15;28.45;;;6.20;99.90;;;;;;4968101;28;20041;-55
2021/04/04 09:01:46;;;;;;;52.40;26.70;;;6.40;99.90;;;;;;4974016;28;20029;-58
2021/04/04 09:04:12;;;;;;;50.08;25.33;;;6.60;99.80;;;;;;4974344;28;20030;-54
2021/04/04 09:06:43;;;;;;;45.35;22.33;;;6.70;99.50;;;;;;4973746;28;20023;-56
2021/04/04 09:09:18;;;;;;;46.22;22.42;;;6.70;99.20;;;;;;4967197;28;20043;-57
2021/04/04 09:11:48;;;;;;;51.13;20.30;;;6.80;99.20;;;;;;4972626;28;20033;-58
2021/04/04 09:14:15;;;;;;;35.80;15.38;;;6.80;98.90;;;;;;4974725;28;20034;-59
2021/04/04 09:16:57;;;;;;;34.38;14.00;;;6.70;99.00;;;;;;4972721;28;20117;-58
2021/04/04 09:19:35;;;;;;;36.85;14.68;;;6.40;99.70;;;;;;4974460;28;20035;-57
2021/04/04 09:22:10;;;;;;;47.95;15.57;;;6.50;99.70;;;;;;4972606;28;20018;-54
2021/04/04 09:24:56;;;;;;;36.17;16.08;;;6.70;99.40;;;;;;4974260;28;20038;-57
2021/04/04 09:27:25;;;;;;;40.63;17.55;;;6.60;99.70;;;;;;4967191;28;20059;-57
2021/04/04 09:29:52;;;;;;;36.83;18.80;;;6.80;99.40;;;;;;4972863;28;20029;-57
2021/04/04 09:32:36;;;;;;;42.25;20.60;;;6.90;99.10;;;;;;4965536;28;20106;-57
2021/04/04 09:35:06;;;;;;;42.53;20.63;;;6.90;99.00;;;;;;4973410;28;20035;-57
2021/04/04 09:37:33;;;;;;;39.08;20.40;;;6.90;99.00;;;;;;4968817;28;20740;-57
2021/04/04 09:39:59;;;;;;;41.72;23.98;;;6.90;99.00;;;;;;4972827;28;20041;-58
2021/04/04 09:42:29;;;;;;;44.45;22.58;;;7.10;98.90;;;;;;4969399;28;20038;-58
2021/04/04 09:45:18;;;;;;;43.70;20.92;;;6.90;98.90;;;;;;4973993;28;20037;-57
2021/04/04 09:47:46;;;;;;;43.38;22.00;;;6.80;99.50;;;;;;4969699;28;20031;-56
2021/04/04 09:50:22;;;;;;;46.58;23.17;;;6.70;99.40;;;;;;4968847;28;20042;-58
2021/04/04 09:52:49;;;;;;;51.05;24.42;;;6.80;99.60;;;;;;4968537;28;20819;-56
2021/04/04 09:55:19;;;;;;;45.10;24.13;;;6.90;99.60;;;;;;4973415;28;20038;-58
2021/04/04 09:57:47;;;;;;;46.75;24.25;;;7.00;99.70;;;;;;4951843;28;20102;-59
2021/04/04 10:00:21;;;;;;;47.65;24.40;;;7.10;99.40;;;;;;4973820;28;20023;-53
2021/04/04 10:02:49;;;;;;;45.90;24.58;;;6.90;99.20;;;;;;4971105;28;20023;-57
2021/04/04 10:05:25;;;;;;;42.97;22.35;;;6.80;99.70;;;;;;4973716;28;20034;-57
2021/04/04 10:07:51;;;;;;;49.15;24.55;;;6.80;99.90;;;;;;4962177;28;20038;-55
2021/04/04 10:10:30;;;;;;;41.83;23.17;;;6.90;99.90;;;;;;4970246;28;20236;-57
2021/04/04 10:13:00;;;;;;;44.80;23.33;;;7.10;99.90;;;;;;4966374;28;20399;-58
2021/04/04 10:15:26;;;;;;;49.72;26.15;;;7.10;99.80;;;;;;4966562;28;20053;-59
2021/04/04 10:17:57;;;;;;;52.97;26.45;;;7.10;99.60;;;;;;4971373;28;20512;-54
2021/04/04 10:20:37;;;;;;;56.72;25.23;;;7.20;99.60;;;;;;4972608;28;20134;-58
2021/04/04 10:23:04;;;;;;;52.05;26.90;;;7.20;99.30;;;;;;4973071;28;20361;-56
2021/04/04 10:25:29;;;;;;;55.88;26.58;;;7.20;99.40;;;;;;4972314;28;20038;-57
2021/04/04 10:28:03;;;;;;;52.58;27.02;;;7.10;99.60;;;;;;4969259;28;20030;-55
2021/04/04 10:30:30;;;;;;;51.22;25.27;;;7.00;99.40;;;;;;4971275;28;20562;-56
2021/04/04 10:33:15;;;;;;;45.15;26.92;;;7.20;99.40;;;;;;4962802;28;20085;-58
2021/04/04 10:35:42;;;;;;;52.45;26.00;;;7.10;99.90;;;;;;4969376;28;20627;-55
2021/04/04 10:38:10;;;;;;;52.45;27.02;;;7.00;99.80;;;;;;4964854;28;20382;-56
2021/04/04 10:40:45;;;;;;;54.28;26.83;;;7.10;99.60;;;;;;4972129;28;20033;-57
2021/04/04 10:43:12;;;;;;;51.50;28.02;;;7.10;99.70;;;;;;4965156;28;20092;-54
2021/04/04 10:45:59;;;;;;;53.10;28.30;;;7.20;99.90;;;;;;4972188;28;20424;-58
2021/04/04 10:48:25;;;;;;;52.03;29.10;;;7.30;99.90;;;;;;4971489;28;20035;-57
2021/04/04 10:50:51;;;;;;;59.70;30.25;;;7.40;99.90;;;;;;4971994;28;20034;-58
2021/04/04 10:53:18;;;;;;;51.42;30.25;;;7.40;99.90;;;;;;4971602;28;20039;-57
2021/04/04 10:55:46;;;;;;;52.05;29.65;;;7.50;99.80;;;;;;4957677;28;20492;-59
2021/04/04 10:58:13;;;;;;;60.17;29.70;;;7.50;99.40;;;;;;4959940;28;20560;-56
2021/04/04 11:00:39;;;;;;;56.72;31.42;;;7.50;99.50;;;;;;4966270;28;20065;-56
2021/04/04 11:03:05;;;;;;;63.22;31.27;;;7.20;99.50;;;;;;4963392;28;20463;-58
2021/04/04 11:05:32;;;;;;;62.22;31.27;;;7.40;99.90;;;;;;4972557;28;20030;-56
2021/04/04 11:07:58;;;;;;;58.58;31.75;;;7.40;99.60;;;;;;4971382;28;20035;-57
2021/04/04 11:10:23;;;;;;;58.05;29.90;;;7.60;99.50;;;;;;4981033;28;20042;-58
2021/04/04 11:12:51;;;;;;;53.88;31.67;;;7.50;99.20;;;;;;4970263;28;20089;-57
2021/04/04 11:15:17;;;;;;;61.05;32.33;;;7.40;99.30;;;;;;4969926;28;20515;-54
2021/04/04 11:17:46;;;;;;;62.28;33.05;;;7.50;99.80;;;;;;4969272;28;20030;-59
2021/04/04 11:20:16;;;;;;;67.13;32.17;;;7.60;99.60;;;;;;4970411;28;20027;-58
2021/04/04 11:22:42;;;;;;;61.80;30.77;;;7.70;99.30;;;;;;4970902;28;20034;-56
2021/04/04 11:25:10;;;;;;;63.13;30.85;;;7.70;99.20;;;;;;4968631;28;20730;-59
2021/04/04 11:27:49;;;;;;;59.80;32.47;;;7.80;99.50;;;;;;4968180;28;20031;-54
2021/04/04 11:30:35;;;;;;;61.45;33.15;;;7.70;99.30;;;;;;4968197;28;20035;-52
2021/04/04 11:33:16;;;;;;;58.70;32.25;;;7.70;99.70;;;;;;4966288;28;20026;-56
2021/04/04 11:36:12;;;;;;;54.95;31.75;;;7.70;99.80;;;;;;4969737;28;20114;-55
2021/04/04 11:38:50;;;;;;;54.17;31.23;;;7.70;99.90;;;;;;4969883;28;20074;-58
2021/04/04 11:41:21;;;;;;;51.58;28.70;;;7.60;99.90;;;;;;4970259;28;20431;-58
2021/04/04 11:43:52;;;;;;;58.33;31.25;;;7.70;99.60;;;;;;4970656;28;20050;-55
2021/04/04 11:46:38;;;;;;;56.25;30.67;;;7.90;99.80;;;;;;4963498;28;20030;-54
2021/04/04 11:49:33;;;;;;;46.90;26.63;;;7.70;99.60;;;;;;4965232;28;20026;-55
2021/04/04 11:52:08;;;;;;;;;;;7.50;99.90;;;;;;4965514;28;20027;-56
2021/04/04 11:54:51;;;;;;;51.55;26.33;;;7.60;99.90;;;;;;4971385;28;20009;-57
2021/04/04 11:57:24;;;;;;;49.83;27.75;;;7.70;99.70;;;;;;4954414;28;20563;-57
2021/04/04 11:59:50;;;;;;;49.22;25.98;;;7.70;99.60;;;;;;4968456;28;20097;-58
2021/04/04 12:02:18;;;;;;;49.05;27.50;;;7.80;99.50;;;;;;4967537;28;20031;-57
2021/04/04 12:04:57;;;;;;;47.60;25.45;;;7.80;99.50;;;;;;4970457;28;20084;-56
2021/04/04 12:07:23;;;;;;;48.15;24.52;;;7.80;99.20;;;;;;4966670;28;20433;-56
2021/04/04 12:09:50;;;;;;;49.22;24.75;;;7.80;99.30;;;;;;4963622;28;20055;-57
2021/04/04 12:12:16;;;;;;;44.83;26.08;;;7.90;99.80;;;;;;4962849;28;20390;-58
2021/04/04 12:14:56;;;;;;;38.53;24.05;;;8.00;99.60;;;;;;4967584;28;20034;-53
2021/04/04 12:17:30;;;;;;;56.63;26.80;;;8.10;99.70;;;;;;4968890;28;20499;-56
2021/04/04 12:19:56;;;;;;;39.38;24.55;;;8.10;99.40;;;;;;4966098;28;20022;-57
2021/04/04 12:22:34;;;;;;;40.13;24.23;;;8.20;99.10;;;;;;4963136;28;20062;-56
2021/04/04 12:24:59;;;;;;;42.92;25.30;;;8.20;99.20;;;;;;4969981;28;20035;-55
2021/04/04 12:27:27;;;;;;;53.75;25.08;;;8.10;98.90;;;;;;4970367;28;20081;-57
2021/04/04 12:29:56;;;;;;;39.22;23.25;;;8.10;99.20;;;;;;4969988;28;20088;-54
2021/04/04 12:32:33;;;;;;;37.22;22.40;;;7.80;99.20;;;;;;4966899;28;20507;-58
2021/04/04 12:35:02;;;;;;;43.63;25.48;;;7.90;99.80;;;;;;4970100;28;20041;-57
2021/04/04 12:37:30;;;;;;;42.97;23.52;;;7.90;99.60;;;;;;4970071;28;20105;-57
2021/04/04 12:39:59;;;;;;;40.53;22.75;;;8.00;99.50;;;;;;4969604;28;20872;-55
2021/04/04 12:42:32;;;;;;;42.75;22.00;;;7.90;99.60;;;;;;4968506;28;20400;-57
2021/04/04 12:44:58;;;;;;;44.85;23.20;;;8.00;99.40;;;;;;4967695;28;20038;-57
2021/04/04 12:47:26;;;;;;;39.22;23.15;;;8.00;99.80;;;;;;4967032;28;20046;-57
2021/04/04 12:50:07;;;;;;;43.80;21.58;;;8.00;99.90;;;;;;4967565;28;20133;-56
2021/04/04 12:52:40;;;;;;;35.92;21.60;;;8.00;99.40;;;;;;4967917;28;20035;-59
2021/04/04 12:55:30;;;;;;;38.63;20.05;;;8.20;99.40;;;;;;4969347;28;20511;-58
2021/04/04 12:58:01;;;;;;;37.25;19.17;;;8.10;99.40;;;;;;4943699;28;20050;-55
2021/04/04 13:00:39;;;;;;;34.40;20.15;;;8.10;99.60;;;;;;4967888;28;20023;-55
2021/04/04 13:03:11;;;;;;;39.47;20.58;;;8.30;98.80;;;;;;4953584;28;20929;-56
2021/04/04 13:05:48;;;;;;;37.20;20.48;;;8.20;98.60;;;;;;4964671;28;20110;-55
2021/04/04 13:08:17;;;;;;;57.22;28.42;;;8.20;99.50;;;;;;4969252;28;20475;-57
2021/04/04 13:10:49;;;;;;;43.83;25.20;;;8.00;99.50;;;;;;4967077;28;20571;-56